Pella, IA (50219)

4:24 PM CST on December 05, 2016 (GMT -0600)
Broadway Pella | | Change Station

Elev 873 ft 41.41 °N, 92.92 °W | Updated 15 seconds ago

Clear
Clear
44.2 °F
Feels Like 44 °F
N
1.3
Wind Variable Wind from South
Gusts 2.5 mph

Today
High -- | Low -- °F
--% Chance of Precip.
Yesterday
High -- | Low -- °F
Precip. -- in
Pressure 29.80 in
Visibility 10.0 miles
Clouds Clear
Windchill 44 °F
Dew Point 36 °F
Humidity 72%
Rainfall 0.05 in
Snow Depth Not available.
7:22 AM 4:42 PM
Waxing Crescent, 35% visible
METAR KPEA 052215Z AUTO 14008KT 10SM CLR 07/02 A2980 RMK AO2 T00700016
Pressure 29.80 in
Visibility 10.0 miles
Clouds Clear
Windchill 44 °F
Dew Point 36 °F
Humidity 72%
Rainfall 0.05 in
Snow Depth Not available.
7:22 AM 4:42 PM
Waxing Crescent, 35% visible
METAR KPEA 052215Z AUTO 14008KT 10SM CLR 07/02 A2980 RMK AO2 T00700016

10-Day Weather Forecast

Almanac

Astronomy

Dec. 05, 2016 Rise Set
Actual Time
Civil Twilight
Nautical Twilight
Astronomical Twilight
Moon
Length of Visible Light
Length of Day
Tomorrow will be .
, % of the Moon is Illuminated

Today's Extremes

State Highs State Lows

Community

WunderPhotos

Upload Photos

1,955,869 photos uploaded!

WunderBlog® & News

Nearby

Air Quality

  Air Quality AQ Index Pollutant
Not available.

Snow Depth

Station Depth Elevation

Earthquake Activity

City Distance Mag. Time & Date
Minimum magnitude displayed is 2.5.

Coastal Water Temperatures

Place Temperature

Stations

Nearby Weather Stations

Station Location Temp. Windchill Dew Point Humidity Wind Precip. Elev Updated Type
                   

Watches & Warnings

There are currently no watches in effect.